sensor_id;sensor_type;location;lat;lon;timestamp;temperature;humidity
2867;DHT22;1441;48.886;8.728;2023-05-16T00:01:21;13.00;99.90
2867;DHT22;1441;48.886;8.728;2023-05-16T00:03:47;13.00;99.90
2867;DHT22;1441;48.886;8.728;2023-05-16T00:06:13;13.00;99.90
2867;DHT22;1441;48.886;8.728;2023-05-16T00:08:39;13.00;99.90
2867;DHT22;1441;48.886;8.728;2023-05-16T00:11:05;13.00;99.90
2867;DHT22;1441;48.886;8.728;2023-05-16T00:13:31;13.00;99.90
2867;DHT22;1441;48.886;8.728;2023-05-16T00:15:56;13.10;99.90
2867;DHT22;1441;48.886;8.728;2023-05-16T00:18:26;13.00;99.90
2867;DHT22;1441;48.886;8.728;2023-05-16T00:20:53;13.00;99.90
2867;DHT22;1441;48.886;8.728;2023-05-16T00:23:19;13.00;99.90
2867;DHT22;1441;48.886;8.728;2023-05-16T00:25:44;13.00;99.90
2867;DHT22;1441;48.886;8.728;2023-05-16T00:28:11;12.90;99.90
2867;DHT22;1441;48.886;8.728;2023-05-16T00:30:37;12.90;99.90
2867;DHT22;1441;48.886;8.728;2023-05-16T00:33:02;12.80;99.90
2867;DHT22;1441;48.886;8.728;2023-05-16T00:35:28;12.90;99.90
2867;DHT22;1441;48.886;8.728;2023-05-16T00:37:53;12.80;99.90
2867;DHT22;1441;48.886;8.728;2023-05-16T00:40:19;12.80;99.90
2867;DHT22;1441;48.886;8.728;2023-05-16T00:42:45;12.80;99.90
2867;DHT22;1441;48.886;8.728;2023-05-16T00:45:11;12.70;99.90
2867;DHT22;1441;48.886;8.728;2023-05-16T00:47:36;12.70;99.90
2867;DHT22;1441;48.886;8.728;2023-05-16T00:50:02;12.70;99.90
2867;DHT22;1441;48.886;8.728;2023-05-16T00:52:29;12.70;99.90
2867;DHT22;1441;48.886;8.728;2023-05-16T00:54:56;12.60;99.90
2867;DHT22;1441;48.886;8.728;2023-05-16T00:57:21;12.70;99.90
2867;DHT22;1441;48.886;8.728;2023-05-16T00:59:47;12.70;99.90
2867;DHT22;1441;48.886;8.728;2023-05-16T01:02:14;12.60;99.90
2867;DHT22;1441;48.886;8.728;2023-05-16T01:04:40;12.60;99.90
2867;DHT22;1441;48.886;8.728;2023-05-16T01:07:06;12.60;99.90
2867;DHT22;1441;48.886;8.728;2023-05-16T01:09:32;12.60;99.90
2867;DHT22;1441;48.886;8.728;2023-05-16T01:12:12;12.50;99.90
2867;DHT22;1441;48.886;8.728;2023-05-16T01:15:12;12.60;99.90
2867;DHT22;1441;48.886;8.728;2023-05-16T01:20:36;12.50;99.90
2867;DHT22;1441;48.886;8.728;2023-05-16T01:25:56;12.60;99.90
2867;DHT22;1441;48.886;8.728;2023-05-16T01:28:23;12.60;99.90
2867;DHT22;1441;48.886;8.728;2023-05-16T01:30:50;12.60;99.90
2867;DHT22;1441;48.886;8.728;2023-05-16T01:33:16;12.60;99.90
2867;DHT22;1441;48.886;8.728;2023-05-16T01:38:38;12.50;99.90
2867;DHT22;1441;48.886;8.728;2023-05-16T01:41:27;12.50;99.90
2867;DHT22;1441;48.886;8.728;2023-05-16T01:44:01;12.50;99.90
2867;DHT22;1441;48.886;8.728;2023-05-16T01:46:30;12.50;99.90
2867;DHT22;1441;48.886;8.728;2023-05-16T01:49:18;12.60;99.90
2867;DHT22;1441;48.886;8.728;2023-05-16T01:51:53;12.50;99.90
2867;DHT22;1441;48.886;8.728;2023-05-16T01:54:23;12.50;99.90
2867;DHT22;1441;48.886;8.728;2023-05-16T01:56:52;12.50;99.90
2867;DHT22;1441;48.886;8.728;2023-05-16T01:59:19;12.50;99.90
2867;DHT22;1441;48.886;8.728;2023-05-16T02:01:46;12.50;99.90
2867;DHT22;1441;48.886;8.728;2023-05-16T02:04:12;12.50;99.90
2867;DHT22;1441;48.886;8.728;2023-05-16T02:06:40;12.50;99.90
2867;DHT22;1441;48.886;8.728;2023-05-16T02:09:06;12.50;99.90
2867;DHT22;1441;48.886;8.728;2023-05-16T02:11:31;12.50;99.90
2867;DHT22;1441;48.886;8.728;2023-05-16T02:13:57;12.50;99.90
2867;DHT22;1441;48.886;8.728;2023-05-16T02:16:22;12.50;99.90
2867;DHT22;1441;48.886;8.728;2023-05-16T02:18:48;12.50;99.90
2867;DHT22;1441;48.886;8.728;2023-05-16T02:21:13;12.50;99.90
2867;DHT22;1441;48.886;8.728;2023-05-16T02:23:39;12.50;99.90
2867;DHT22;1441;48.886;8.728;2023-05-16T02:26:04;12.50;99.90
2867;DHT22;1441;48.886;8.728;2023-05-16T02:28:30;12.40;99.90
2867;DHT22;1441;48.886;8.728;2023-05-16T02:31:00;12.40;99.90
2867;DHT22;1441;48.886;8.728;2023-05-16T02:33:27;12.40;99.90
2867;DHT22;1441;48.886;8.728;2023-05-16T02:35:53;12.40;99.90
2867;DHT22;1441;48.886;8.728;2023-05-16T02:38:19;12.40;99.90
2867;DHT22;1441;48.886;8.728;2023-05-16T02:40:48;12.40;99.90
2867;DHT22;1441;48.886;8.728;2023-05-16T02:43:14;12.40;99.90
2867;DHT22;1441;48.886;8.728;2023-05-16T02:45:40;12.40;99.90
2867;DHT22;1441;48.886;8.728;2023-05-16T02:48:06;12.40;99.90
2867;DHT22;1441;48.886;8.728;2023-05-16T02:50:32;12.40;99.90
2867;DHT22;1441;48.886;8.728;2023-05-16T02:52:58;12.40;99.90
2867;DHT22;1441;48.886;8.728;2023-05-16T02:55:24;12.40;99.90
2867;DHT22;1441;48.886;8.728;2023-05-16T02:57:50;12.40;99.90
2867;DHT22;1441;48.886;8.728;2023-05-16T03:00:17;12.40;99.90
2867;DHT22;1441;48.886;8.728;2023-05-16T03:02:43;12.40;99.90
2867;DHT22;1441;48.886;8.728;2023-05-16T03:05:09;12.40;99.90
2867;DHT22;1441;48.886;8.728;2023-05-16T03:07:36;12.40;99.90
2867;DHT22;1441;48.886;8.728;2023-05-16T03:10:02;12.40;99.90
2867;DHT22;1441;48.886;8.728;2023-05-16T03:12:28;12.40;99.90
2867;DHT22;1441;48.886;8.728;2023-05-16T03:14:54;12.40;99.90
2867;DHT22;1441;48.886;8.728;2023-05-16T03:17:19;12.40;99.90
2867;DHT22;1441;48.886;8.728;2023-05-16T03:19:45;12.40;99.90
2867;DHT22;1441;48.886;8.728;2023-05-16T03:22:11;12.40;99.90
2867;DHT22;1441;48.886;8.728;2023-05-16T03:24:36;12.40;99.90
2867;DHT22;1441;48.886;8.728;2023-05-16T03:27:02;12.30;99.90
2867;DHT22;1441;48.886;8.728;2023-05-16T03:29:29;12.30;99.90
2867;DHT22;1441;48.886;8.728;2023-05-16T03:31:54;12.30;99.90
2867;DHT22;1441;48.886;8.728;2023-05-16T03:34:20;12.30;99.90
2867;DHT22;1441;48.886;8.728;2023-05-16T03:36:48;12.40;99.90
2867;DHT22;1441;48.886;8.728;2023-05-16T03:39:13;12.30;99.90
2867;DHT22;1441;48.886;8.728;2023-05-16T03:41:39;12.30;99.90
2867;DHT22;1441;48.886;8.728;2023-05-16T03:44:04;12.20;99.90
2867;DHT22;1441;48.886;8.728;2023-05-16T03:46:30;12.20;99.90
2867;DHT22;1441;48.886;8.728;2023-05-16T03:48:55;12.20;99.90
2867;DHT22;1441;48.886;8.728;2023-05-16T03:51:21;12.20;99.90
2867;DHT22;1441;48.886;8.728;2023-05-16T03:53:46;12.20;99.90
2867;DHT22;1441;48.886;8.728;2023-05-16T03:56:12;12.20;99.90
2867;DHT22;1441;48.886;8.728;2023-05-16T03:58:38;12.20;99.90
2867;DHT22;1441;48.886;8.728;2023-05-16T04:01:03;12.20;99.90
2867;DHT22;1441;48.886;8.728;2023-05-16T04:03:29;12.20;99.90
2867;DHT22;1441;48.886;8.728;2023-05-16T04:05:54;12.20;99.90
2867;DHT22;1441;48.886;8.728;2023-05-16T04:08:21;12.20;99.90
2867;DHT22;1441;48.886;8.728;2023-05-16T04:10:46;12.10;99.90
2867;DHT22;1441;48.886;8.728;2023-05-16T04:13:13;12.20;99.90
2867;DHT22;1441;48.886;8.728;2023-05-16T04:15:38;12.20;99.90
2867;DHT22;1441;48.886;8.728;2023-05-16T04:18:04;12.10;99.90
2867;DHT22;1441;48.886;8.728;2023-05-16T04:20:30;12.10;99.90
2867;DHT22;1441;48.886;8.728;2023-05-16T04:22:56;12.10;99.90
2867;DHT22;1441;48.886;8.728;2023-05-16T04:25:21;12.10;99.90
2867;DHT22;1441;48.886;8.728;2023-05-16T04:27:47;12.10;99.90
2867;DHT22;1441;48.886;8.728;2023-05-16T04:30:12;12.10;99.90
2867;DHT22;1441;48.886;8.728;2023-05-16T04:32:39;12.10;99.90
2867;DHT22;1441;48.886;8.728;2023-05-16T04:35:05;12.10;99.90
2867;DHT22;1441;48.886;8.728;2023-05-16T04:37:33;12.10;99.90
2867;DHT22;1441;48.886;8.728;2023-05-16T04:40:00;12.10;99.90
2867;DHT22;1441;48.886;8.728;2023-05-16T04:42:26;12.10;99.90
2867;DHT22;1441;48.886;8.728;2023-05-16T04:44:51;12.00;99.90
2867;DHT22;1441;48.886;8.728;2023-05-16T04:47:17;12.00;99.90
2867;DHT22;1441;48.886;8.728;2023-05-16T04:49:43;12.00;99.90
2867;DHT22;1441;48.886;8.728;2023-05-16T04:52:09;12.00;99.90
2867;DHT22;1441;48.886;8.728;2023-05-16T04:54:37;12.00;99.90
2867;DHT22;1441;48.886;8.728;2023-05-16T04:57:03;12.00;99.90
2867;DHT22;1441;48.886;8.728;2023-05-16T04:59:29;12.00;99.90
2867;DHT22;1441;48.886;8.728;2023-05-16T05:01:55;12.00;99.90
2867;DHT22;1441;48.886;8.728;2023-05-16T05:04:20;12.00;99.90
2867;DHT22;1441;48.886;8.728;2023-05-16T05:06:47;12.00;99.90
2867;DHT22;1441;48.886;8.728;2023-05-16T05:09:12;11.90;99.90
2867;DHT22;1441;48.886;8.728;2023-05-16T05:11:38;11.90;99.90
2867;DHT22;1441;48.886;8.728;2023-05-16T05:14:03;11.90;99.90
2867;DHT22;1441;48.886;8.728;2023-05-16T05:16:29;11.90;99.90
2867;DHT22;1441;48.886;8.728;2023-05-16T05:18:54;11.90;99.90
2867;DHT22;1441;48.886;8.728;2023-05-16T05:21:20;11.90;99.90
2867;DHT22;1441;48.886;8.728;2023-05-16T05:23:46;11.80;99.90
2867;DHT22;1441;48.886;8.728;2023-05-16T05:26:13;11.80;99.90
2867;DHT22;1441;48.886;8.728;2023-05-16T05:28:39;11.80;99.90
2867;DHT22;1441;48.886;8.728;2023-05-16T05:31:05;11.90;99.90
2867;DHT22;1441;48.886;8.728;2023-05-16T05:33:32;11.90;99.90
2867;DHT22;1441;48.886;8.728;2023-05-16T05:35:58;11.80;99.90
2867;DHT22;1441;48.886;8.728;2023-05-16T05:38:24;11.90;99.90
2867;DHT22;1441;48.886;8.728;2023-05-16T05:40:50;11.80;99.90
2867;DHT22;1441;48.886;8.728;2023-05-16T05:43:15;11.80;99.90
2867;DHT22;1441;48.886;8.728;2023-05-16T05:45:41;11.70;99.90
2867;DHT22;1441;48.886;8.728;2023-05-16T05:48:07;11.70;99.90
2867;DHT22;1441;48.886;8.728;2023-05-16T05:50:33;11.60;99.90
2867;DHT22;1441;48.886;8.728;2023-05-16T05:52:58;11.70;99.90
2867;DHT22;1441;48.886;8.728;2023-05-16T05:55:24;11.70;99.90
2867;DHT22;1441;48.886;8.728;2023-05-16T05:57:50;11.70;99.90
2867;DHT22;1441;48.886;8.728;2023-05-16T06:00:16;11.60;99.90
2867;DHT22;1441;48.886;8.728;2023-05-16T06:02:42;11.60;99.90
2867;DHT22;1441;48.886;8.728;2023-05-16T06:05:08;11.60;99.90
2867;DHT22;1441;48.886;8.728;2023-05-16T06:07:33;11.60;99.90
2867;DHT22;1441;48.886;8.728;2023-05-16T06:09:59;11.60;99.90
2867;DHT22;1441;48.886;8.728;2023-05-16T06:12:28;11.50;99.90
2867;DHT22;1441;48.886;8.728;2023-05-16T06:14:54;11.40;99.90
2867;DHT22;1441;48.886;8.728;2023-05-16T06:17:20;11.40;99.90
2867;DHT22;1441;48.886;8.728;2023-05-16T06:19:45;11.40;99.90
2867;DHT22;1441;48.886;8.728;2023-05-16T06:22:11;11.40;99.90
2867;DHT22;1441;48.886;8.728;2023-05-16T06:24:37;11.40;99.90
2867;DHT22;1441;48.886;8.728;2023-05-16T06:27:02;11.30;99.90
2867;DHT22;1441;48.886;8.728;2023-05-16T06:29:28;11.40;99.90
2867;DHT22;1441;48.886;8.728;2023-05-16T06:31:53;11.40;99.90
2867;DHT22;1441;48.886;8.728;2023-05-16T06:34:19;11.30;99.90
2867;DHT22;1441;48.886;8.728;2023-05-16T06:36:48;11.30;99.90
2867;DHT22;1441;48.886;8.728;2023-05-16T06:39:13;11.30;99.90
2867;DHT22;1441;48.886;8.728;2023-05-16T06:41:39;11.40;99.90
2867;DHT22;1441;48.886;8.728;2023-05-16T06:44:04;11.40;99.90
2867;DHT22;1441;48.886;8.728;2023-05-16T06:46:30;11.30;99.90
2867;DHT22;1441;48.886;8.728;2023-05-16T06:48:56;11.40;99.90
2867;DHT22;1441;48.886;8.728;2023-05-16T06:51:22;11.30;99.90
2867;DHT22;1441;48.886;8.728;2023-05-16T06:53:48;11.30;99.90
2867;DHT22;1441;48.886;8.728;2023-05-16T06:56:13;11.30;99.90
2867;DHT22;1441;48.886;8.728;2023-05-16T06:58:39;11.30;99.90
2867;DHT22;1441;48.886;8.728;2023-05-16T07:01:04;11.40;99.90
2867;DHT22;1441;48.886;8.728;2023-05-16T07:03:30;11.40;99.90
2867;DHT22;1441;48.886;8.728;2023-05-16T07:05:56;11.40;99.90
2867;DHT22;1441;48.886;8.728;2023-05-16T07:08:24;11.30;99.90
2867;DHT22;1441;48.886;8.728;2023-05-16T07:10:50;11.40;99.90
2867;DHT22;1441;48.886;8.728;2023-05-16T07:13:15;11.30;99.90
2867;DHT22;1441;48.886;8.728;2023-05-16T07:15:41;11.30;99.90
2867;DHT22;1441;48.886;8.728;2023-05-16T07:18:06;11.30;99.90
2867;DHT22;1441;48.886;8.728;2023-05-16T07:20:32;11.30;99.90
2867;DHT22;1441;48.886;8.728;2023-05-16T07:22:58;11.30;99.90
2867;DHT22;1441;48.886;8.728;2023-05-16T07:25:24;11.30;99.90
2867;DHT22;1441;48.886;8.728;2023-05-16T07:27:50;11.40;99.90
2867;DHT22;1441;48.886;8.728;2023-05-16T07:30:15;11.40;99.90
2867;DHT22;1441;48.886;8.728;2023-05-16T07:32:41;11.40;99.90
2867;DHT22;1441;48.886;8.728;2023-05-16T07:35:08;11.40;99.90
2867;DHT22;1441;48.886;8.728;2023-05-16T07:37:34;11.50;99.90
2867;DHT22;1441;48.886;8.728;2023-05-16T07:40:00;11.40;99.90
2867;DHT22;1441;48.886;8.728;2023-05-16T07:42:26;11.40;99.90
2867;DHT22;1441;48.886;8.728;2023-05-16T07:44:51;11.50;99.90
2867;DHT22;1441;48.886;8.728;2023-05-16T07:47:17;11.50;99.90
2867;DHT22;1441;48.886;8.728;2023-05-16T07:49:42;11.50;99.90
2867;DHT22;1441;48.886;8.728;2023-05-16T07:52:08;11.60;99.90
2867;DHT22;1441;48.886;8.728;2023-05-16T07:54:34;11.50;99.90
2867;DHT22;1441;48.886;8.728;2023-05-16T07:57:00;11.60;99.90
2867;DHT22;1441;48.886;8.728;2023-05-16T07:59:26;11.60;99.90
2867;DHT22;1441;48.886;8.728;2023-05-16T08:01:52;11.60;99.90
2867;DHT22;1441;48.886;8.728;2023-05-16T08:04:18;11.60;99.90
2867;DHT22;1441;48.886;8.728;2023-05-16T08:06:44;11.70;99.90
2867;DHT22;1441;48.886;8.728;2023-05-16T08:09:10;11.70;99.90
2867;DHT22;1441;48.886;8.728;2023-05-16T08:11:35;11.70;99.90
2867;DHT22;1441;48.886;8.728;2023-05-16T08:14:02;11.70;99.90
2867;DHT22;1441;48.886;8.728;2023-05-16T08:16:28;11.70;99.90
2867;DHT22;1441;48.886;8.728;2023-05-16T08:18:53;11.80;99.90
2867;DHT22;1441;48.886;8.728;2023-05-16T08:21:19;11.70;99.90
2867;DHT22;1441;48.886;8.728;2023-05-16T08:23:45;11.70;99.90
2867;DHT22;1441;48.886;8.728;2023-05-16T08:26:10;11.70;99.90
2867;DHT22;1441;48.886;8.728;2023-05-16T08:28:36;11.80;99.90
2867;DHT22;1441;48.886;8.728;2023-05-16T08:31:02;11.80;99.90
2867;DHT22;1441;48.886;8.728;2023-05-16T08:33:28;11.80;99.90
2867;DHT22;1441;48.886;8.728;2023-05-16T08:35:53;11.80;99.90
2867;DHT22;1441;48.886;8.728;2023-05-16T08:38:19;11.90;99.90
2867;DHT22;1441;48.886;8.728;2023-05-16T08:40:45;11.90;99.90
2867;DHT22;1441;48.886;8.728;2023-05-16T08:43:11;12.00;99.90
2867;DHT22;1441;48.886;8.728;2023-05-16T08:45:36;12.00;99.90
2867;DHT22;1441;48.886;8.728;2023-05-16T08:48:04;12.00;99.90
2867;DHT22;1441;48.886;8.728;2023-05-16T08:50:30;12.00;99.90
2867;DHT22;1441;48.886;8.728;2023-05-16T08:52:56;12.10;99.90
2867;DHT22;1441;48.886;8.728;2023-05-16T08:55:23;12.10;99.90
2867;DHT22;1441;48.886;8.728;2023-05-16T08:57:51;12.10;99.90
2867;DHT22;1441;48.886;8.728;2023-05-16T09:00:18;12.20;99.90
2867;DHT22;1441;48.886;8.728;2023-05-16T09:02:45;12.20;99.90
2867;DHT22;1441;48.886;8.728;2023-05-16T09:05:13;12.20;99.90
2867;DHT22;1441;48.886;8.728;2023-05-16T09:07:39;12.20;99.90
2867;DHT22;1441;48.886;8.728;2023-05-16T09:10:06;12.10;99.90
2867;DHT22;1441;48.886;8.728;2023-05-16T09:12:32;12.10;99.90
2867;DHT22;1441;48.886;8.728;2023-05-16T09:15:00;12.10;99.90
2867;DHT22;1441;48.886;8.728;2023-05-16T09:17:34;12.10;99.90
2867;DHT22;1441;48.886;8.728;2023-05-16T09:20:11;12.10;99.90
2867;DHT22;1441;48.886;8.728;2023-05-16T09:22:37;12.10;99.90
2867;DHT22;1441;48.886;8.728;2023-05-16T09:25:03;12.10;99.90
2867;DHT22;1441;48.886;8.728;2023-05-16T09:27:30;12.10;99.90
2867;DHT22;1441;48.886;8.728;2023-05-16T09:29:57;12.30;99.90
2867;DHT22;1441;48.886;8.728;2023-05-16T09:32:23;12.30;99.90
2867;DHT22;1441;48.886;8.728;2023-05-16T09:34:49;12.30;99.90
2867;DHT22;1441;48.886;8.728;2023-05-16T09:37:19;12.30;99.90
2867;DHT22;1441;48.886;8.728;2023-05-16T09:39:46;12.30;99.90
2867;DHT22;1441;48.886;8.728;2023-05-16T09:42:13;12.20;99.90
2867;DHT22;1441;48.886;8.728;2023-05-16T09:44:39;12.20;99.90
2867;DHT22;1441;48.886;8.728;2023-05-16T09:47:05;12.20;99.90
2867;DHT22;1441;48.886;8.728;2023-05-16T09:49:30;12.30;99.90
2867;DHT22;1441;48.886;8.728;2023-05-16T09:52:00;12.30;99.90
2867;DHT22;1441;48.886;8.728;2023-05-16T09:54:32;12.30;99.90
2867;DHT22;1441;48.886;8.728;2023-05-16T09:56:58;12.30;99.90
2867;DHT22;1441;48.886;8.728;2023-05-16T09:59:27;12.20;99.90
2867;DHT22;1441;48.886;8.728;2023-05-16T10:01:52;12.10;99.90
2867;DHT22;1441;48.886;8.728;2023-05-16T10:04:19;12.00;99.90
2867;DHT22;1441;48.886;8.728;2023-05-16T10:06:44;12.10;99.90
2867;DHT22;1441;48.886;8.728;2023-05-16T10:09:10;12.10;99.90
2867;DHT22;1441;48.886;8.728;2023-05-16T10:11:39;12.00;99.90
2867;DHT22;1441;48.886;8.728;2023-05-16T10:14:06;12.10;99.90
2867;DHT22;1441;48.886;8.728;2023-05-16T10:16:34;12.10;99.90
2867;DHT22;1441;48.886;8.728;2023-05-16T10:19:02;12.10;99.90
2867;DHT22;1441;48.886;8.728;2023-05-16T10:21:28;12.20;99.90
2867;DHT22;1441;48.886;8.728;2023-05-16T10:23:56;12.30;99.90
2867;DHT22;1441;48.886;8.728;2023-05-16T10:26:23;12.40;99.90
2867;DHT22;1441;48.886;8.728;2023-05-16T10:28:50;12.50;99.90
2867;DHT22;1441;48.886;8.728;2023-05-16T10:31:17;12.60;99.90
2867;DHT22;1441;48.886;8.728;2023-05-16T10:33:43;12.70;99.90
2867;DHT22;1441;48.886;8.728;2023-05-16T10:36:09;12.60;99.90
2867;DHT22;1441;48.886;8.728;2023-05-16T10:38:37;12.60;99.90
2867;DHT22;1441;48.886;8.728;2023-05-16T10:41:04;12.50;99.90
2867;DHT22;1441;48.886;8.728;2023-05-16T10:43:30;12.60;99.90
2867;DHT22;1441;48.886;8.728;2023-05-16T10:45:58;12.70;99.90
2867;DHT22;1441;48.886;8.728;2023-05-16T10:48:30;12.80;99.90
2867;DHT22;1441;48.886;8.728;2023-05-16T10:50:56;12.90;99.90
2867;DHT22;1441;48.886;8.728;2023-05-16T10:53:30;12.80;99.90
2867;DHT22;1441;48.886;8.728;2023-05-16T11:09:26;12.60;99.30
2867;DHT22;1441;48.886;8.728;2023-05-16T11:25:03;12.50;99.90
2867;DHT22;1441;48.886;8.728;2023-05-16T11:27:30;12.50;99.90
2867;DHT22;1441;48.886;8.728;2023-05-16T11:32:29;12.50;99.40
2867;DHT22;1441;48.886;8.728;2023-05-16T11:34:57;12.50;99.30
2867;DHT22;1441;48.886;8.728;2023-05-16T11:37:22;12.30;99.90
2867;DHT22;1441;48.886;8.728;2023-05-16T11:39:48;12.20;99.90
2867;DHT22;1441;48.886;8.728;2023-05-16T11:42:14;12.10;99.90
2867;DHT22;1441;48.886;8.728;2023-05-16T11:44:39;12.10;99.90
2867;DHT22;1441;48.886;8.728;2023-05-16T11:47:06;11.90;99.90
2867;DHT22;1441;48.886;8.728;2023-05-16T11:49:32;11.90;99.90
2867;DHT22;1441;48.886;8.728;2023-05-16T11:51:58;11.90;99.90
2867;DHT22;1441;48.886;8.728;2023-05-16T11:54:24;11.90;99.90
2867;DHT22;1441;48.886;8.728;2023-05-16T11:56:51;11.90;99.90
2867;DHT22;1441;48.886;8.728;2023-05-16T11:59:17;11.90;99.90
2867;DHT22;1441;48.886;8.728;2023-05-16T12:01:43;11.80;99.90
2867;DHT22;1441;48.886;8.728;2023-05-16T12:04:12;11.80;99.90
2867;DHT22;1441;48.886;8.728;2023-05-16T12:06:38;11.80;99.90
2867;DHT22;1441;48.886;8.728;2023-05-16T12:09:11;11.80;99.60
2867;DHT22;1441;48.886;8.728;2023-05-16T12:11:38;11.70;99.90
2867;DHT22;1441;48.886;8.728;2023-05-16T12:14:05;11.70;99.90
2867;DHT22;1441;48.886;8.728;2023-05-16T12:16:31;11.60;99.90
2867;DHT22;1441;48.886;8.728;2023-05-16T12:18:58;11.70;99.90
2867;DHT22;1441;48.886;8.728;2023-05-16T12:21:24;11.70;99.90
2867;DHT22;1441;48.886;8.728;2023-05-16T12:23:54;11.70;99.90
2867;DHT22;1441;48.886;8.728;2023-05-16T12:26:29;11.70;99.90
2867;DHT22;1441;48.886;8.728;2023-05-16T12:29:02;11.60;99.90
2867;DHT22;1441;48.886;8.728;2023-05-16T12:31:31;11.60;99.90
2867;DHT22;1441;48.886;8.728;2023-05-16T12:34:00;11.60;99.80
2867;DHT22;1441;48.886;8.728;2023-05-16T12:36:25;11.70;99.90
2867;DHT22;1441;48.886;8.728;2023-05-16T12:38:59;11.70;99.50
2867;DHT22;1441;48.886;8.728;2023-05-16T12:41:26;11.80;97.90
2867;DHT22;1441;48.886;8.728;2023-05-16T12:44:17;11.90;97.80
2867;DHT22;1441;48.886;8.728;2023-05-16T12:46:49;11.70;99.70
2867;DHT22;1441;48.886;8.728;2023-05-16T12:49:19;11.80;99.00
2867;DHT22;1441;48.886;8.728;2023-05-16T12:51:50;11.90;99.40
2867;DHT22;1441;48.886;8.728;2023-05-16T12:54:15;11.90;99.30
2867;DHT22;1441;48.886;8.728;2023-05-16T12:56:41;11.90;98.70
2867;DHT22;1441;48.886;8.728;2023-05-16T12:59:08;12.00;98.40
2867;DHT22;1441;48.886;8.728;2023-05-16T13:01:34;12.00;98.80
2867;DHT22;1441;48.886;8.728;2023-05-16T13:04:00;12.00;99.00
2867;DHT22;1441;48.886;8.728;2023-05-16T13:06:26;12.00;98.80
2867;DHT22;1441;48.886;8.728;2023-05-16T13:08:53;12.00;98.40
2867;DHT22;1441;48.886;8.728;2023-05-16T13:11:19;12.10;98.50
2867;DHT22;1441;48.886;8.728;2023-05-16T13:13:45;12.10;98.70
2867;DHT22;1441;48.886;8.728;2023-05-16T13:16:10;12.30;98.20
2867;DHT22;1441;48.886;8.728;2023-05-16T13:18:36;12.30;97.50
2867;DHT22;1441;48.886;8.728;2023-05-16T13:21:02;12.40;97.20
2867;DHT22;1441;48.886;8.728;2023-05-16T13:23:30;12.50;96.30
2867;DHT22;1441;48.886;8.728;2023-05-16T13:25:57;12.50;96.30
2867;DHT22;1441;48.886;8.728;2023-05-16T13:28:23;12.50;96.30
2867;DHT22;1441;48.886;8.728;2023-05-16T13:30:49;12.50;96.30
2867;DHT22;1441;48.886;8.728;2023-05-16T13:33:15;12.60;95.00
2867;DHT22;1441;48.886;8.728;2023-05-16T13:35:42;12.60;96.10
2867;DHT22;1441;48.886;8.728;2023-05-16T13:38:07;12.60;95.80
2867;DHT22;1441;48.886;8.728;2023-05-16T13:40:33;12.70;95.00
2867;DHT22;1441;48.886;8.728;2023-05-16T13:42:59;12.80;94.90
2867;DHT22;1441;48.886;8.728;2023-05-16T13:45:26;12.80;94.20
2867;DHT22;1441;48.886;8.728;2023-05-16T13:47:51;12.80;93.70
2867;DHT22;1441;48.886;8.728;2023-05-16T13:50:17;12.70;94.80
2867;DHT22;1441;48.886;8.728;2023-05-16T13:52:43;12.70;95.20
2867;DHT22;1441;48.886;8.728;2023-05-16T13:55:09;12.70;94.10
2867;DHT22;1441;48.886;8.728;2023-05-16T13:57:34;12.70;95.20
2867;DHT22;1441;48.886;8.728;2023-05-16T14:00:00;13.00;93.60
2867;DHT22;1441;48.886;8.728;2023-05-16T14:02:26;12.80;93.20
2867;DHT22;1441;48.886;8.728;2023-05-16T14:04:52;12.70;94.40
2867;DHT22;1441;48.886;8.728;2023-05-16T14:07:18;12.70;94.10
2867;DHT22;1441;48.886;8.728;2023-05-16T14:09:43;12.80;93.90
2867;DHT22;1441;48.886;8.728;2023-05-16T14:12:10;12.80;94.40
2867;DHT22;1441;48.886;8.728;2023-05-16T14:14:36;12.80;92.80
2867;DHT22;1441;48.886;8.728;2023-05-16T14:17:02;12.60;93.10
2867;DHT22;1441;48.886;8.728;2023-05-16T14:19:29;12.60;93.90
2867;DHT22;1441;48.886;8.728;2023-05-16T14:21:54;12.50;94.50
2867;DHT22;1441;48.886;8.728;2023-05-16T14:24:20;12.60;94.50
2867;DHT22;1441;48.886;8.728;2023-05-16T14:26:46;12.50;94.70
2867;DHT22;1441;48.886;8.728;2023-05-16T14:29:11;12.60;93.40
2867;DHT22;1441;48.886;8.728;2023-05-16T14:31:38;12.60;93.70
2867;DHT22;1441;48.886;8.728;2023-05-16T14:34:03;12.50;93.70
2867;DHT22;1441;48.886;8.728;2023-05-16T14:36:29;12.60;93.10
2867;DHT22;1441;48.886;8.728;2023-05-16T14:38:56;12.60;93.10
2867;DHT22;1441;48.886;8.728;2023-05-16T14:41:22;12.70;93.70
2867;DHT22;1441;48.886;8.728;2023-05-16T14:43:47;12.70;94.10
2867;DHT22;1441;48.886;8.728;2023-05-16T14:46:13;12.90;92.20
2867;DHT22;1441;48.886;8.728;2023-05-16T14:48:39;13.00;91.40
2867;DHT22;1441;48.886;8.728;2023-05-16T14:51:05;12.90;91.90
2867;DHT22;1441;48.886;8.728;2023-05-16T14:53:31;12.80;91.90
2867;DHT22;1441;48.886;8.728;2023-05-16T14:55:57;12.70;91.60
2867;DHT22;1441;48.886;8.728;2023-05-16T14:58:23;12.70;91.20
2867;DHT22;1441;48.886;8.728;2023-05-16T15:00:49;12.60;92.40
2867;DHT22;1441;48.886;8.728;2023-05-16T15:03:16;12.60;92.50
2867;DHT22;1441;48.886;8.728;2023-05-16T15:05:42;12.60;91.50
2867;DHT22;1441;48.886;8.728;2023-05-16T15:08:08;12.70;91.90
2867;DHT22;1441;48.886;8.728;2023-05-16T15:10:34;12.60;92.60
2867;DHT22;1441;48.886;8.728;2023-05-16T15:13:00;12.50;92.20
2867;DHT22;1441;48.886;8.728;2023-05-16T15:15:25;12.50;91.70
2867;DHT22;1441;48.886;8.728;2023-05-16T15:17:51;12.60;90.30
2867;DHT22;1441;48.886;8.728;2023-05-16T15:20:18;12.70;89.60
2867;DHT22;1441;48.886;8.728;2023-05-16T15:22:43;12.60;88.50
2867;DHT22;1441;48.886;8.728;2023-05-16T15:25:09;12.60;90.10
2867;DHT22;1441;48.886;8.728;2023-05-16T15:27:35;12.70;88.70
2867;DHT22;1441;48.886;8.728;2023-05-16T15:30:01;12.70;89.50
2867;DHT22;1441;48.886;8.728;2023-05-16T15:32:26;12.60;89.80
2867;DHT22;1441;48.886;8.728;2023-05-16T15:34:52;12.60;90.70
2867;DHT22;1441;48.886;8.728;2023-05-16T15:37:19;12.50;91.30
2867;DHT22;1441;48.886;8.728;2023-05-16T15:39:44;12.60;89.70
2867;DHT22;1441;48.886;8.728;2023-05-16T15:42:10;12.70;90.20
2867;DHT22;1441;48.886;8.728;2023-05-16T15:44:35;12.70;90.00
2867;DHT22;1441;48.886;8.728;2023-05-16T15:47:01;12.80;88.70
2867;DHT22;1441;48.886;8.728;2023-05-16T15:49:27;12.90;88.10
2867;DHT22;1441;48.886;8.728;2023-05-16T15:51:52;12.90;85.60
2867;DHT22;1441;48.886;8.728;2023-05-16T15:54:18;13.00;84.00
2867;DHT22;1441;48.886;8.728;2023-05-16T15:56:44;12.90;84.40
2867;DHT22;1441;48.886;8.728;2023-05-16T15:59:09;13.00;84.10
2867;DHT22;1441;48.886;8.728;2023-05-16T16:01:35;12.90;85.80
2867;DHT22;1441;48.886;8.728;2023-05-16T16:04:00;12.80;86.10
2867;DHT22;1441;48.886;8.728;2023-05-16T16:06:26;12.70;85.90
2867;DHT22;1441;48.886;8.728;2023-05-16T16:08:52;12.70;86.40
2867;DHT22;1441;48.886;8.728;2023-05-16T16:11:20;12.70;86.20
2867;DHT22;1441;48.886;8.728;2023-05-16T16:13:49;12.80;84.90
2867;DHT22;1441;48.886;8.728;2023-05-16T16:16:15;12.80;85.70
2867;DHT22;1441;48.886;8.728;2023-05-16T16:18:42;12.80;85.20
2867;DHT22;1441;48.886;8.728;2023-05-16T16:21:08;13.00;81.20
2867;DHT22;1441;48.886;8.728;2023-05-16T16:23:35;12.90;84.00
2867;DHT22;1441;48.886;8.728;2023-05-16T16:26:00;12.90;80.80
2867;DHT22;1441;48.886;8.728;2023-05-16T16:28:26;12.90;81.80
2867;DHT22;1441;48.886;8.728;2023-05-16T16:30:51;12.80;82.00
2867;DHT22;1441;48.886;8.728;2023-05-16T16:33:17;12.80;85.10
2867;DHT22;1441;48.886;8.728;2023-05-16T16:35:43;12.70;85.60